sensor_id;sensor_type;location;lat;lon;timestamp;pressure;altitude;pressure_sealevel;temperature;humidity
27712;BME280;2377;51.734;8.950;2023-07-13T00:02:32;97752.31;;;19.02;64.19
27712;BME280;2377;51.734;8.950;2023-07-13T00:05:01;97759.34;;;18.96;63.91
27712;BME280;2377;51.734;8.950;2023-07-13T00:07:36;97760.91;;;18.92;63.95
27712;BME280;2377;51.734;8.950;2023-07-13T00:10:08;97768.97;;;18.91;64.54
27712;BME280;2377;51.734;8.950;2023-07-13T00:12:44;97762.00;;;18.86;64.20
27712;BME280;2377;51.734;8.950;2023-07-13T00:15:19;97773.63;;;18.84;64.49
27712;BME280;2377;51.734;8.950;2023-07-13T00:17:55;97769.53;;;18.77;64.52
27712;BME280;2377;51.734;8.950;2023-07-13T00:20:34;97772.13;;;18.72;64.87
27712;BME280;2377;51.734;8.950;2023-07-13T00:23:10;97776.81;;;18.65;64.54
27712;BME280;2377;51.734;8.950;2023-07-13T00:25:41;97771.38;;;18.62;65.20
27712;BME280;2377;51.734;8.950;2023-07-13T00:28:19;97778.63;;;18.59;65.69
27712;BME280;2377;51.734;8.950;2023-07-13T00:30:51;97775.53;;;18.57;65.46
27712;BME280;2377;51.734;8.950;2023-07-13T00:33:26;97766.22;;;18.56;65.42
27712;BME280;2377;51.734;8.950;2023-07-13T00:35:59;97768.06;;;18.51;65.47
27712;BME280;2377;51.734;8.950;2023-07-13T00:38:29;97768.59;;;18.48;65.23
27712;BME280;2377;51.734;8.950;2023-07-13T00:41:01;97768.06;;;18.46;65.04
27712;BME280;2377;51.734;8.950;2023-07-13T00:43:32;97770.41;;;18.42;65.22
27712;BME280;2377;51.734;8.950;2023-07-13T00:46:20;97762.16;;;18.35;65.20
27712;BME280;2377;51.734;8.950;2023-07-13T00:48:59;97763.72;;;18.31;65.24
27712;BME280;2377;51.734;8.950;2023-07-13T00:51:50;97764.50;;;18.26;65.42
27712;BME280;2377;51.734;8.950;2023-07-13T00:54:26;97762.72;;;18.22;65.09
27712;BME280;2377;51.734;8.950;2023-07-13T00:57:02;97756.78;;;18.16;65.10
27712;BME280;2377;51.734;8.950;2023-07-13T00:59:37;97750.81;;;18.10;65.34
27712;BME280;2377;51.734;8.950;2023-07-13T01:02:15;97748.25;;;18.05;65.37
27712;BME280;2377;51.734;8.950;2023-07-13T01:04:46;97754.22;;;18.01;65.27
27712;BME280;2377;51.734;8.950;2023-07-13T01:07:16;97748.28;;;17.95;65.20
27712;BME280;2377;51.734;8.950;2023-07-13T01:09:49;97744.91;;;17.89;65.51
27712;BME280;2377;51.734;8.950;2023-07-13T01:12:20;97749.06;;;17.85;65.51
27712;BME280;2377;51.734;8.950;2023-07-13T01:15:00;97747.50;;;17.79;65.63
27712;BME280;2377;51.734;8.950;2023-07-13T01:17:32;97749.03;;;17.75;65.74
27712;BME280;2377;51.734;8.950;2023-07-13T01:20:11;97757.31;;;17.72;65.92
27712;BME280;2377;51.734;8.950;2023-07-13T01:22:43;97759.91;;;17.67;65.69
27712;BME280;2377;51.734;8.950;2023-07-13T01:25:18;97753.72;;;17.63;66.14
27712;BME280;2377;51.734;8.950;2023-07-13T01:27:55;97752.41;;;17.60;66.45
27712;BME280;2377;51.734;8.950;2023-07-13T01:30:25;97748.53;;;17.58;66.72
27712;BME280;2377;51.734;8.950;2023-07-13T01:33:03;97745.19;;;17.52;66.93
27712;BME280;2377;51.734;8.950;2023-07-13T01:35:31;97747.50;;;17.48;66.72
27712;BME280;2377;51.734;8.950;2023-07-13T01:38:19;97747.50;;;17.43;66.81
27712;BME280;2377;51.734;8.950;2023-07-13T01:40:48;97751.38;;;17.41;66.73
27712;BME280;2377;51.734;8.950;2023-07-13T01:43:21;97752.91;;;17.37;66.66
27712;BME280;2377;51.734;8.950;2023-07-13T01:45:50;97757.31;;;17.36;66.90
27712;BME280;2377;51.734;8.950;2023-07-13T01:48:26;97750.88;;;17.33;67.62
27712;BME280;2377;51.734;8.950;2023-07-13T01:50:58;97749.28;;;17.27;68.14
27712;BME280;2377;51.734;8.950;2023-07-13T01:53:31;97764.03;;;17.27;67.94
27712;BME280;2377;51.734;8.950;2023-07-13T01:56:00;97762.22;;;17.27;67.87
27712;BME280;2377;51.734;8.950;2023-07-13T01:58:28;97758.34;;;17.25;67.85
27712;BME280;2377;51.734;8.950;2023-07-13T02:01:02;97768.91;;;17.23;67.72
27712;BME280;2377;51.734;8.950;2023-07-13T02:03:32;97761.44;;;17.22;68.24
27712;BME280;2377;51.734;8.950;2023-07-13T02:06:09;97761.94;;;17.19;68.25
27712;BME280;2377;51.734;8.950;2023-07-13T02:08:43;97756.75;;;17.08;69.32
27712;BME280;2377;51.734;8.950;2023-07-13T02:11:16;97756.75;;;16.98;69.99
27712;BME280;2377;51.734;8.950;2023-07-13T02:13:57;97762.44;;;17.00;70.13
27712;BME280;2377;51.734;8.950;2023-07-13T02:16:27;97752.59;;;16.97;70.21
27712;BME280;2377;51.734;8.950;2023-07-13T02:19:03;97761.38;;;16.96;70.20
27712;BME280;2377;51.734;8.950;2023-07-13T02:21:36;97757.50;;;16.94;69.99
27712;BME280;2377;51.734;8.950;2023-07-13T02:24:11;97760.34;;;16.92;70.70
27712;BME280;2377;51.734;8.950;2023-07-13T02:26:46;97762.41;;;16.95;70.59
27712;BME280;2377;51.734;8.950;2023-07-13T02:29:15;97760.88;;;16.94;70.75
27712;BME280;2377;51.734;8.950;2023-07-13T02:31:44;97762.91;;;16.92;70.61
27712;BME280;2377;51.734;8.950;2023-07-13T02:34:19;97759.56;;;16.86;70.67
27712;BME280;2377;51.734;8.950;2023-07-13T02:36:53;97765.50;;;16.87;71.07
27712;BME280;2377;51.734;8.950;2023-07-13T02:39:30;97764.44;;;16.83;71.21
27712;BME280;2377;51.734;8.950;2023-07-13T02:42:15;97757.41;;;16.78;71.50
27712;BME280;2377;51.734;8.950;2023-07-13T02:44:49;97761.81;;;16.78;71.52
27712;BME280;2377;51.734;8.950;2023-07-13T02:47:27;97761.28;;;16.76;71.54
27712;BME280;2377;51.734;8.950;2023-07-13T02:49:57;97762.81;;;16.72;72.15
27712;BME280;2377;51.734;8.950;2023-07-13T02:52:27;97762.81;;;16.72;71.71
27712;BME280;2377;51.734;8.950;2023-07-13T02:55:06;97764.88;;;16.69;71.94
27712;BME280;2377;51.734;8.950;2023-07-13T02:57:44;97758.16;;;16.68;71.89
27712;BME280;2377;51.734;8.950;2023-07-13T03:00:27;97751.97;;;16.69;71.75
27712;BME280;2377;51.734;8.950;2023-07-13T03:02:58;97758.16;;;16.68;72.11
27712;BME280;2377;51.734;8.950;2023-07-13T03:05:28;97761.03;;;16.72;71.78
27712;BME280;2377;51.734;8.950;2023-07-13T03:07:59;97759.69;;;16.69;71.80
27712;BME280;2377;51.734;8.950;2023-07-13T03:10:33;97759.69;;;16.64;71.73
27712;BME280;2377;51.734;8.950;2023-07-13T03:13:08;97758.16;;;16.63;71.64
27712;BME280;2377;51.734;8.950;2023-07-13T03:15:50;97762.03;;;16.61;71.59
27712;BME280;2377;51.734;8.950;2023-07-13T03:18:25;97765.59;;;16.55;71.73
27712;BME280;2377;51.734;8.950;2023-07-13T03:21:12;97779.78;;;16.52;72.10
27712;BME280;2377;51.734;8.950;2023-07-13T03:23:46;97768.41;;;16.53;71.55
27712;BME280;2377;51.734;8.950;2023-07-13T03:26:34;97775.13;;;16.49;71.35
27712;BME280;2377;51.734;8.950;2023-07-13T03:29:10;97771.25;;;16.46;71.18
27712;BME280;2377;51.734;8.950;2023-07-13T03:31:46;97767.06;;;16.40;71.52
27712;BME280;2377;51.734;8.950;2023-07-13T03:34:15;97769.41;;;16.42;71.69
27712;BME280;2377;51.734;8.950;2023-07-13T03:36:48;97777.16;;;16.42;71.67
27712;BME280;2377;51.734;8.950;2023-07-13T03:39:26;97770.94;;;16.38;72.10
27712;BME280;2377;51.734;8.950;2023-07-13T03:42:09;97777.63;;;16.34;71.88
27712;BME280;2377;51.734;8.950;2023-07-13T03:44:51;97786.41;;;16.33;72.45
27712;BME280;2377;51.734;8.950;2023-07-13T03:47:20;97788.47;;;16.36;72.40
27712;BME280;2377;51.734;8.950;2023-07-13T03:50:05;97779.94;;;16.35;72.82
27712;BME280;2377;51.734;8.950;2023-07-13T03:52:40;97793.16;;;16.44;72.62
27712;BME280;2377;51.734;8.950;2023-07-13T03:55:10;97794.50;;;16.52;71.82
27712;BME280;2377;51.734;8.950;2023-07-13T03:57:47;97794.19;;;16.48;72.22
27712;BME280;2377;51.734;8.950;2023-07-13T04:00:17;97807.91;;;16.54;71.69
27712;BME280;2377;51.734;8.950;2023-07-13T04:02:50;97797.03;;;16.46;71.60
27712;BME280;2377;51.734;8.950;2023-07-13T04:05:18;97800.63;;;16.40;71.71
27712;BME280;2377;51.734;8.950;2023-07-13T04:07:48;97797.25;;;16.40;71.79
27712;BME280;2377;51.734;8.950;2023-07-13T04:10:23;97800.59;;;16.35;70.98
27712;BME280;2377;51.734;8.950;2023-07-13T04:12:53;97808.56;;;16.34;71.11
27712;BME280;2377;51.734;8.950;2023-07-13T04:15:21;97813.19;;;16.32;70.86
27712;BME280;2377;51.734;8.950;2023-07-13T04:17:50;97806.50;;;16.31;71.10
27712;BME280;2377;51.734;8.950;2023-07-13T04:20:18;97813.41;;;16.25;71.18
27712;BME280;2377;51.734;8.950;2023-07-13T04:22:53;97804.94;;;16.30;70.96
27712;BME280;2377;51.734;8.950;2023-07-13T04:25:28;97807.03;;;16.33;70.92
27712;BME280;2377;51.734;8.950;2023-07-13T04:27:58;97808.03;;;16.32;71.10
27712;BME280;2377;51.734;8.950;2023-07-13T04:30:29;97807.06;;;16.38;70.83
27712;BME280;2377;51.734;8.950;2023-07-13T04:33:00;97813.19;;;16.32;71.18
27712;BME280;2377;51.734;8.950;2023-07-13T04:35:31;97810.16;;;16.35;71.17
27712;BME280;2377;51.734;8.950;2023-07-13T04:38:08;97812.22;;;16.38;71.32
27712;BME280;2377;51.734;8.950;2023-07-13T04:40:44;97812.75;;;16.40;70.87
27712;BME280;2377;51.734;8.950;2023-07-13T04:43:14;97811.69;;;16.36;70.78
27712;BME280;2377;51.734;8.950;2023-07-13T04:45:45;97816.13;;;16.45;70.42
27712;BME280;2377;51.734;8.950;2023-07-13T04:48:24;97811.47;;;16.42;70.45
27712;BME280;2377;51.734;8.950;2023-07-13T04:50:59;97814.84;;;16.48;70.37
27712;BME280;2377;51.734;8.950;2023-07-13T04:53:40;97819.53;;;16.51;70.15
27712;BME280;2377;51.734;8.950;2023-07-13T04:56:17;97816.41;;;16.49;70.36
27712;BME280;2377;51.734;8.950;2023-07-13T04:58:52;97822.66;;;16.58;70.09
27712;BME280;2377;51.734;8.950;2023-07-13T05:01:42;97815.91;;;16.52;70.36
27712;BME280;2377;51.734;8.950;2023-07-13T05:04:16;97819.28;;;16.58;69.79
27712;BME280;2377;51.734;8.950;2023-07-13T05:06:48;97813.63;;;16.61;69.57
27712;BME280;2377;51.734;8.950;2023-07-13T05:09:22;97821.63;;;16.64;69.81
27712;BME280;2377;51.734;8.950;2023-07-13T05:11:57;97824.28;;;16.75;69.78
27712;BME280;2377;51.734;8.950;2023-07-13T05:14:47;97836.91;;;16.76;69.38
27712;BME280;2377;51.734;8.950;2023-07-13T05:17:19;97827.13;;;16.78;69.43
27712;BME280;2377;51.734;8.950;2023-07-13T05:20:04;97834.38;;;16.81;69.56
27712;BME280;2377;51.734;8.950;2023-07-13T05:22:34;97834.16;;;16.88;69.21
27712;BME280;2377;51.734;8.950;2023-07-13T05:25:05;97833.13;;;16.84;69.09
27712;BME280;2377;51.734;8.950;2023-07-13T05:27:37;97829.00;;;16.88;69.12
27712;BME280;2377;51.734;8.950;2023-07-13T05:30:11;97833.16;;;16.94;68.99
27712;BME280;2377;51.734;8.950;2023-07-13T05:32:48;97830.84;;;16.98;68.59
27712;BME280;2377;51.734;8.950;2023-07-13T05:35:16;97828.53;;;16.96;68.93
27712;BME280;2377;51.734;8.950;2023-07-13T05:37:52;97833.16;;;16.94;68.52
27712;BME280;2377;51.734;8.950;2023-07-13T05:40:53;97842.72;;;16.99;68.64
27712;BME280;2377;51.734;8.950;2023-07-13T05:43:29;97833.72;;;17.06;68.29
27712;BME280;2377;51.734;8.950;2023-07-13T05:46:04;97832.72;;;17.13;68.62
27712;BME280;2377;51.734;8.950;2023-07-13T05:48:40;97828.59;;;17.22;68.00
27712;BME280;2377;51.734;8.950;2023-07-13T05:51:29;97831.69;;;17.19;67.62
27712;BME280;2377;51.734;8.950;2023-07-13T05:54:03;97839.19;;;17.20;67.27
27712;BME280;2377;51.734;8.950;2023-07-13T05:57:13;97837.34;;;17.05;67.41
27712;BME280;2377;51.734;8.950;2023-07-13T05:59:47;97845.63;;;17.13;67.61
27712;BME280;2377;51.734;8.950;2023-07-13T06:02:24;97843.06;;;17.28;67.34
27712;BME280;2377;51.734;8.950;2023-07-13T06:05:07;97851.38;;;17.40;68.23
27712;BME280;2377;51.734;8.950;2023-07-13T06:07:48;97844.91;;;17.32;68.42
27712;BME280;2377;51.734;8.950;2023-07-13T06:10:22;97850.88;;;17.53;67.93
27712;BME280;2377;51.734;8.950;2023-07-13T06:12:58;97851.63;;;17.33;67.55
27712;BME280;2377;51.734;8.950;2023-07-13T06:15:28;97862.28;;;17.58;67.65
27712;BME280;2377;51.734;8.950;2023-07-13T06:18:09;97861.75;;;17.66;67.31
27712;BME280;2377;51.734;8.950;2023-07-13T06:20:40;97854.28;;;17.64;67.38
27712;BME280;2377;51.734;8.950;2023-07-13T06:23:23;97863.63;;;17.81;66.88
27712;BME280;2377;51.734;8.950;2023-07-13T06:25:57;97865.44;;;17.90;66.79
27712;BME280;2377;51.734;8.950;2023-07-13T06:28:28;97867.50;;;17.88;66.98
27712;BME280;2377;51.734;8.950;2023-07-13T06:30:59;97871.13;;;17.87;66.92
27712;BME280;2377;51.734;8.950;2023-07-13T06:33:46;97877.84;;;17.83;67.43
27712;BME280;2377;51.734;8.950;2023-07-13T06:36:15;97878.13;;;17.97;66.75
27712;BME280;2377;51.734;8.950;2023-07-13T06:38:50;97883.03;;;17.83;67.59
27712;BME280;2377;51.734;8.950;2023-07-13T06:41:22;97877.84;;;17.83;68.08
27712;BME280;2377;51.734;8.950;2023-07-13T06:43:57;97889.50;;;17.91;67.10
27712;BME280;2377;51.734;8.950;2023-07-13T06:46:31;97876.28;;;17.82;66.84
27712;BME280;2377;51.734;8.950;2023-07-13T06:49:01;97882.00;;;18.00;67.43
27712;BME280;2377;51.734;8.950;2023-07-13T06:51:32;97883.03;;;18.14;67.10
27712;BME280;2377;51.734;8.950;2023-07-13T06:54:02;97888.72;;;18.16;66.97
27712;BME280;2377;51.734;8.950;2023-07-13T06:56:31;97886.91;;;18.22;66.71
27712;BME280;2377;51.734;8.950;2023-07-13T06:59:12;97888.69;;;18.36;66.18
27712;BME280;2377;51.734;8.950;2023-07-13T07:01:50;97887.66;;;18.43;66.37
27712;BME280;2377;51.734;8.950;2023-07-13T07:04:36;97895.41;;;18.48;66.53
27712;BME280;2377;51.734;8.950;2023-07-13T07:07:09;97904.22;;;18.67;65.58
27712;BME280;2377;51.734;8.950;2023-07-13T07:09:42;97893.09;;;18.51;65.01
27712;BME280;2377;51.734;8.950;2023-07-13T07:12:12;97895.91;;;18.75;65.52
27712;BME280;2377;51.734;8.950;2023-07-13T07:14:42;97899.03;;;18.67;64.54
27712;BME280;2377;51.734;8.950;2023-07-13T07:17:16;97899.03;;;18.67;65.28
27712;BME280;2377;51.734;8.950;2023-07-13T07:20:00;97900.56;;;18.68;65.32
27712;BME280;2377;51.734;8.950;2023-07-13T07:22:40;97894.63;;;18.57;65.37
27712;BME280;2377;51.734;8.950;2023-07-13T07:25:12;97888.44;;;18.53;65.99
27712;BME280;2377;51.734;8.950;2023-07-13T07:27:52;97895.94;;;18.65;66.08
27712;BME280;2377;51.734;8.950;2023-07-13T07:30:49;97902.88;;;18.85;66.51
27712;BME280;2377;51.734;8.950;2023-07-13T07:33:32;97899.53;;;18.79;65.59
27712;BME280;2377;51.734;8.950;2023-07-13T07:36:10;97901.00;;;19.06;65.11
27712;BME280;2377;51.734;8.950;2023-07-13T07:38:41;97902.00;;;19.15;64.02
27712;BME280;2377;51.734;8.950;2023-07-13T07:41:14;97897.88;;;19.14;64.15
27712;BME280;2377;51.734;8.950;2023-07-13T07:43:54;97902.00;;;19.20;64.13
27712;BME280;2377;51.734;8.950;2023-07-13T07:46:30;97901.97;;;19.31;64.67
27712;BME280;2377;51.734;8.950;2023-07-13T07:49:04;97910.56;;;19.16;64.79
27712;BME280;2377;51.734;8.950;2023-07-13T07:51:55;97902.97;;;19.30;63.70
27712;BME280;2377;51.734;8.950;2023-07-13T07:54:40;97903.44;;;19.42;64.10
27712;BME280;2377;51.734;8.950;2023-07-13T07:57:18;97907.59;;;19.43;63.82
27712;BME280;2377;51.734;8.950;2023-07-13T07:59:57;97912.72;;;19.53;64.38
27712;BME280;2377;51.734;8.950;2023-07-13T08:02:40;97912.50;;;19.50;63.61
27712;BME280;2377;51.734;8.950;2023-07-13T08:05:15;97915.31;;;19.53;63.33
27712;BME280;2377;51.734;8.950;2023-07-13T08:07:47;97915.88;;;19.40;62.92
27712;BME280;2377;51.734;8.950;2023-07-13T08:10:24;97924.91;;;19.53;63.10
27712;BME280;2377;51.734;8.950;2023-07-13T08:13:01;97924.63;;;19.59;62.34
27712;BME280;2377;51.734;8.950;2023-07-13T08:15:43;97918.69;;;19.98;61.26
27712;BME280;2377;51.734;8.950;2023-07-13T08:18:14;97909.22;;;20.18;61.31
27712;BME280;2377;51.734;8.950;2023-07-13T08:20:47;97924.34;;;20.40;61.80
27712;BME280;2377;51.734;8.950;2023-07-13T08:23:32;97924.44;;;20.30;60.61
27712;BME280;2377;51.734;8.950;2023-07-13T08:26:03;97932.09;;;20.16;61.16
27712;BME280;2377;51.734;8.950;2023-07-13T08:29:01;97927.41;;;19.78;61.66
27712;BME280;2377;51.734;8.950;2023-07-13T08:31:41;97933.34;;;19.79;61.49
27712;BME280;2377;51.734;8.950;2023-07-13T08:34:26;97935.41;;;19.82;61.98
27712;BME280;2377;51.734;8.950;2023-07-13T08:37:02;97938.19;;;19.96;61.46
27712;BME280;2377;51.734;8.950;2023-07-13T08:39:56;97934.94;;;19.75;61.54
27712;BME280;2377;51.734;8.950;2023-07-13T08:42:50;97940.28;;;19.89;61.97
27712;BME280;2377;51.734;8.950;2023-07-13T08:45:44;97930.06;;;20.08;62.04
27712;BME280;2377;51.734;8.950;2023-07-13T08:48:26;97938.25;;;20.20;61.79
27712;BME280;2377;51.734;8.950;2023-07-13T08:51:20;97937.13;;;20.31;60.62
27712;BME280;2377;51.734;8.950;2023-07-13T08:54:08;97948.72;;;20.10;60.58
27712;BME280;2377;51.734;8.950;2023-07-13T08:57:09;97941.06;;;19.94;60.49
27712;BME280;2377;51.734;8.950;2023-07-13T08:59:57;97929.78;;;20.09;60.97
27712;BME280;2377;51.734;8.950;2023-07-13T09:02:46;97932.00;;;20.26;61.73
27712;BME280;2377;51.734;8.950;2023-07-13T09:05:42;97926.69;;;20.36;60.81
27712;BME280;2377;51.734;8.950;2023-07-13T09:08:43;97932.34;;;20.43;61.00
27712;BME280;2377;51.734;8.950;2023-07-13T09:11:45;97930.56;;;20.39;61.33
27712;BME280;2377;51.734;8.950;2023-07-13T09:14:53;97942.16;;;20.52;61.70
27712;BME280;2377;51.734;8.950;2023-07-13T09:17:41;97940.13;;;20.48;60.99
27712;BME280;2377;51.734;8.950;2023-07-13T09:20:23;97932.66;;;20.71;61.08
27712;BME280;2377;51.734;8.950;2023-07-13T09:22:56;97938.28;;;20.78;61.15
27712;BME280;2377;51.734;8.950;2023-07-13T09:25:35;97936.16;;;20.85;60.06
27712;BME280;2377;51.734;8.950;2023-07-13T09:28:16;97942.16;;;20.57;59.17
27712;BME280;2377;51.734;8.950;2023-07-13T09:30:58;97943.41;;;20.59;59.95
27712;BME280;2377;51.734;8.950;2023-07-13T09:33:34;97944.22;;;20.55;59.34
27712;BME280;2377;51.734;8.950;2023-07-13T09:36:21;97942.59;;;20.64;59.91
27712;BME280;2377;51.734;8.950;2023-07-13T09:39:03;97942.41;;;20.84;60.03
27712;BME280;2377;51.734;8.950;2023-07-13T09:41:44;97936.16;;;20.85;58.08
27712;BME280;2377;51.734;8.950;2023-07-13T09:44:27;97947.50;;;20.95;58.37
27712;BME280;2377;51.734;8.950;2023-07-13T09:47:13;97950.31;;;21.22;57.71
27712;BME280;2377;51.734;8.950;2023-07-13T09:49:45;97939.50;;;21.34;57.38
27712;BME280;2377;51.734;8.950;2023-07-13T09:52:16;97936.81;;;21.63;57.85
27712;BME280;2377;51.734;8.950;2023-07-13T09:54:59;97937.66;;;21.78;57.83
27712;BME280;2377;51.734;8.950;2023-07-13T09:57:31;97940.63;;;21.90;56.24
27712;BME280;2377;51.734;8.950;2023-07-13T10:00:24;97940.88;;;22.07;56.63
27712;BME280;2377;51.734;8.950;2023-07-13T10:03:05;97938.19;;;22.31;56.91
27712;BME280;2377;51.734;8.950;2023-07-13T10:05:42;97949.84;;;22.34;53.93
27712;BME280;2377;51.734;8.950;2023-07-13T10:08:25;97948.41;;;22.28;53.76
27712;BME280;2377;51.734;8.950;2023-07-13T10:11:09;97946.13;;;22.40;54.59
27712;BME280;2377;51.734;8.950;2023-07-13T10:13:53;97942.78;;;22.53;53.87
27712;BME280;2377;51.734;8.950;2023-07-13T10:16:34;97937.72;;;22.43;53.53
27712;BME280;2377;51.734;8.950;2023-07-13T10:19:15;97940.56;;;22.61;54.49
27712;BME280;2377;51.734;8.950;2023-07-13T10:21:55;97947.59;;;22.46;52.81
27712;BME280;2377;51.734;8.950;2023-07-13T10:24:28;97945.94;;;22.36;52.12
27712;BME280;2377;51.734;8.950;2023-07-13T10:27:08;97950.78;;;22.24;52.57
27712;BME280;2377;51.734;8.950;2023-07-13T10:29:53;97951.00;;;22.09;53.07
27712;BME280;2377;51.734;8.950;2023-07-13T10:32:32;97960.22;;;22.01;53.45
27712;BME280;2377;51.734;8.950;2023-07-13T10:35:05;97956.31;;;22.04;53.51
27712;BME280;2377;51.734;8.950;2023-07-13T10:37:51;97963.09;;;22.19;52.88
27712;BME280;2377;51.734;8.950;2023-07-13T10:40:33;97966.41;;;22.24;52.27
27712;BME280;2377;51.734;8.950;2023-07-13T10:43:18;97962.56;;;22.22;51.57
27712;BME280;2377;51.734;8.950;2023-07-13T10:46:08;97961.22;;;22.05;51.81
27712;BME280;2377;51.734;8.950;2023-07-13T10:48:49;97957.56;;;22.25;52.16
27712;BME280;2377;51.734;8.950;2023-07-13T10:51:30;97963.22;;;22.46;53.38
27712;BME280;2377;51.734;8.950;2023-07-13T10:54:30;97953.59;;;22.61;50.61
27712;BME280;2377;51.734;8.950;2023-07-13T10:57:20;97956.50;;;22.73;50.43
27712;BME280;2377;51.734;8.950;2023-07-13T11:00:18;97967.13;;;22.63;50.60
27712;BME280;2377;51.734;8.950;2023-07-13T11:02:59;97967.16;;;22.76;51.05
27712;BME280;2377;51.734;8.950;2023-07-13T11:05:36;97957.75;;;22.75;49.80
27712;BME280;2377;51.734;8.950;2023-07-13T11:08:36;97963.56;;;22.86;50.40
27712;BME280;2377;51.734;8.950;2023-07-13T11:11:38;97959.69;;;22.70;50.70
27712;BME280;2377;51.734;8.950;2023-07-13T11:14:30;97962.78;;;22.72;51.08
27712;BME280;2377;51.734;8.950;2023-07-13T11:17:48;97964.84;;;22.89;52.07
27712;BME280;2377;51.734;8.950;2023-07-13T11:20:39;97960.78;;;22.96;50.59
27712;BME280;2377;51.734;8.950;2023-07-13T11:23:30;97966.25;;;22.81;50.50
27712;BME280;2377;51.734;8.950;2023-07-13T11:26:02;97964.47;;;23.23;52.35
27712;BME280;2377;51.734;8.950;2023-07-13T11:28:35;97952.88;;;23.29;49.91
27712;BME280;2377;51.734;8.950;2023-07-13T11:31:23;97961.69;;;23.06;49.65
27712;BME280;2377;51.734;8.950;2023-07-13T11:34:02;97952.72;;;23.12;49.31
27712;BME280;2377;51.734;8.950;2023-07-13T11:36:54;97956.16;;;22.93;49.41
27712;BME280;2377;51.734;8.950;2023-07-13T11:39:34;97966.19;;;22.86;50.04
27712;BME280;2377;51.734;8.950;2023-07-13T11:42:13;97960.56;;;22.79;50.64
27712;BME280;2377;51.734;8.950;2023-07-13T11:44:47;97969.22;;;22.61;50.61
27712;BME280;2377;51.734;8.950;2023-07-13T11:47:20;97961.09;;;22.48;51.40
27712;BME280;2377;51.734;8.950;2023-07-13T11:49:52;97963.81;;;22.57;51.37
27712;BME280;2377;51.734;8.950;2023-07-13T11:52:33;97959.94;;;22.54;50.80
27712;BME280;2377;51.734;8.950;2023-07-13T11:55:16;97953.41;;;22.71;51.24
27712;BME280;2377;51.734;8.950;2023-07-13T11:57:54;97949.97;;;22.89;51.30
27712;BME280;2377;51.734;8.950;2023-07-13T12:00:29;97945.16;;;23.10;50.35
27712;BME280;2377;51.734;8.950;2023-07-13T12:03:01;97947.66;;;23.29;48.71
27712;BME280;2377;51.734;8.950;2023-07-13T12:05:30;97962.16;;;23.35;49.33
27712;BME280;2377;51.734;8.950;2023-07-13T12:07:58;97955.47;;;23.43;48.24
27712;BME280;2377;51.734;8.950;2023-07-13T12:10:28;97953.34;;;23.31;47.25
27712;BME280;2377;51.734;8.950;2023-07-13T12:13:00;97957.13;;;23.25;47.11
27712;BME280;2377;51.734;8.950;2023-07-13T12:15:37;97948.91;;;23.18;47.52
27712;BME280;2377;51.734;8.950;2023-07-13T12:18:13;97953.66;;;23.16;47.30
27712;BME280;2377;51.734;8.950;2023-07-13T12:20:41;97947.88;;;23.05;48.48
27712;BME280;2377;51.734;8.950;2023-07-13T12:23:24;97954.13;;;23.18;49.21
27712;BME280;2377;51.734;8.950;2023-07-13T12:25:51;97949.88;;;23.36;49.29
27712;BME280;2377;51.734;8.950;2023-07-13T12:28:33;97960.19;;;23.55;48.94
27712;BME280;2377;51.734;8.950;2023-07-13T12:31:04;97955.88;;;23.36;47.06
27712;BME280;2377;51.734;8.950;2023-07-13T12:33:33;97972.75;;;23.53;47.14
27712;BME280;2377;51.734;8.950;2023-07-13T12:36:06;97969.75;;;23.46;47.32
27712;BME280;2377;51.734;8.950;2023-07-13T12:38:33;97968.91;;;23.50;47.31
27712;BME280;2377;51.734;8.950;2023-07-13T12:41:02;97967.81;;;23.51;47.45
27712;BME280;2377;51.734;8.950;2023-07-13T12:43:36;97970.44;;;23.51;46.85
27712;BME280;2377;51.734;8.950;2023-07-13T12:46:16;97963.38;;;23.52;46.95
27712;BME280;2377;51.734;8.950;2023-07-13T12:48:48;97962.91;;;23.50;46.92
27712;BME280;2377;51.734;8.950;2023-07-13T12:51:16;97963.47;;;23.47;47.17
27712;BME280;2377;51.734;8.950;2023-07-13T12:53:49;97969.78;;;23.18;46.04
27712;BME280;2377;51.734;8.950;2023-07-13T12:56:22;97968.31;;;22.98;45.94
27712;BME280;2377;51.734;8.950;2023-07-13T12:58:57;97973.63;;;23.07;46.08
27712;BME280;2377;51.734;8.950;2023-07-13T13:01:28;97977.78;;;22.94;44.96
27712;BME280;2377;51.734;8.950;2023-07-13T13:03:56;97970.09;;;23.03;46.03
27712;BME280;2377;51.734;8.950;2023-07-13T13:06:26;97977.31;;;23.06;46.08
27712;BME280;2377;51.734;8.950;2023-07-13T13:08:56;97968.81;;;23.14;45.97
27712;BME280;2377;51.734;8.950;2023-07-13T13:11:27;97974.81;;;23.00;44.87
27712;BME280;2377;51.734;8.950;2023-07-13T13:13:55;97970.28;;;23.20;46.21
27712;BME280;2377;51.734;8.950;2023-07-13T13:16:29;97981.47;;;23.20;46.81
27712;BME280;2377;51.734;8.950;2023-07-13T13:19:05;97975.09;;;23.27;47.54
27712;BME280;2377;51.734;8.950;2023-07-13T13:21:37;97971.25;;;23.24;47.47
27712;BME280;2377;51.734;8.950;2023-07-13T13:24:11;97970.44;;;23.37;48.13
27712;BME280;2377;51.734;8.950;2023-07-13T13:26:40;97979.13;;;23.47;46.32
27712;BME280;2377;51.734;8.950;2023-07-13T13:29:17;97976.44;;;23.52;46.14
27712;BME280;2377;51.734;8.950;2023-07-13T13:31:45;97978.81;;;23.62;46.58
27712;BME280;2377;51.734;8.950;2023-07-13T13:34:15;97988.19;;;23.77;46.68
27712;BME280;2377;51.734;8.950;2023-07-13T13:36:44;97983.59;;;23.96;46.59
27712;BME280;2377;51.734;8.950;2023-07-13T13:39:20;97983.38;;;24.07;47.05
27712;BME280;2377;51.734;8.950;2023-07-13T13:41:49;97985.75;;;24.17;46.29
27712;BME280;2377;51.734;8.950;2023-07-13T13:44:20;97985.31;;;24.23;46.86
27712;BME280;2377;51.734;8.950;2023-07-13T13:46:51;97990.97;;;24.17;46.75
27712;BME280;2377;51.734;8.950;2023-07-13T13:49:22;97983.72;;;24.36;47.21
27712;BME280;2377;51.734;8.950;2023-07-13T13:51:50;97991.03;;;24.48;46.74
27712;BME280;2377;51.734;8.950;2023-07-13T13:54:19;97984.53;;;24.45;46.61
27712;BME280;2377;51.734;8.950;2023-07-13T13:56:49;97984.50;;;24.37;47.20
27712;BME280;2377;51.734;8.950;2023-07-13T13:59:19;97986.00;;;24.52;46.23
27712;BME280;2377;51.734;8.950;2023-07-13T14:01:48;97987.13;;;24.37;46.01
27712;BME280;2377;51.734;8.950;2023-07-13T14:04:19;97995.78;;;24.46;45.67